OJAI/AMM METAR and TAF weather

Enter ICAO airport designator
Station Type Date Time Source
OJAI METAR 2018/12/11 18:00 UTC NOAA

OJAI 111800Z 00000KT 8000 NSC 09/04 Q1021 NOSIG


Station Type Date Time Source
OJAI Decoded METAR 2018/12/11 18:00 UTC NOAA

Queen Alia Airport, Jordan (OJAI) 31-40N 035-58E
Dec 11, 2018 - 01:00 PM EST / 2018.12.11 1800 UTC
Wind: Calm:0
Visibility: 4 mile(s):0
Temperature: 48 F (9 C)
Dew Point: 39 F (4 C)
Relative Humidity: 70%
Pressure (altimeter): 30.15 in. Hg (1021 hPa)
ob: OJAI 111800Z 00000KT 8000 NSC 09/04 Q1021 NOSIG
cycle: 18

Station Type Date Time Source
OJAI TAF 2018/12/11 18:13 UTC NOAA

TAF OJAI 111657Z 1118/1224 24006KT 7000 NSC PROB30 1200/1206 3000 BR
BECMG 1206/1208 25012KT 5000 HZ SCT030 PROB40 1208/1224 25018KT 4000 BLDU
TEMPO 1214/1224 3000 SHRA SCT030 BKN035


Example: see airport list